createdAt,value
2022-08-04T00:00:00.115Z,997.91
2022-08-04T00:05:00.105Z,997.87
2022-08-04T00:10:00.122Z,997.82
2022-08-04T00:15:00.090Z,997.92
2022-08-04T00:20:00.075Z,997.87
2022-08-04T00:25:00.100Z,997.78
2022-08-04T00:30:00.155Z,997.78
2022-08-04T00:35:00.126Z,997.83
2022-08-04T00:40:00.112Z,997.81
2022-08-04T00:45:00.113Z,997.78
2022-08-04T00:50:00.103Z,997.83
2022-08-04T00:55:00.103Z,997.85
2022-08-04T01:00:00.146Z,997.84
2022-08-04T01:05:00.078Z,997.87
2022-08-04T01:10:00.085Z,997.84
2022-08-04T01:15:00.086Z,997.88
2022-08-04T01:20:00.086Z,997.88
2022-08-04T01:25:00.097Z,997.92
2022-08-04T01:30:00.092Z,997.86
2022-08-04T01:35:00.105Z,997.79
2022-08-04T01:40:00.092Z,997.86
2022-08-04T01:45:00.096Z,997.87
2022-08-04T01:50:00.089Z,997.79
2022-08-04T01:55:00.089Z,997.71
2022-08-04T02:00:00.133Z,997.81
2022-08-04T02:05:00.085Z,997.75
2022-08-04T02:10:00.199Z,997.73
2022-08-04T02:15:00.091Z,997.79
2022-08-04T02:20:00.076Z,997.85
2022-08-04T02:25:00.092Z,997.74
2022-08-04T02:30:00.106Z,997.68
2022-08-04T02:35:00.084Z,997.66
2022-08-04T02:40:00.118Z,997.67
2022-08-04T02:45:00.136Z,997.69
2022-08-04T02:50:00.121Z,997.6
2022-08-04T02:55:00.103Z,997.66
2022-08-04T03:00:00.136Z,997.63
2022-08-04T03:05:00.098Z,997.57
2022-08-04T03:10:00.120Z,997.61
2022-08-04T03:15:00.081Z,997.58
2022-08-04T03:20:00.073Z,997.66
2022-08-04T03:25:00.093Z,997.62
2022-08-04T03:30:00.102Z,997.63
2022-08-04T03:35:00.086Z,997.63
2022-08-04T03:40:00.103Z,997.68
2022-08-04T03:45:00.087Z,997.74
2022-08-04T03:50:00.090Z,997.69
2022-08-04T03:55:00.098Z,997.72
2022-08-04T04:00:00.120Z,997.63
2022-08-04T04:05:00.082Z,997.65
2022-08-04T04:10:06.107Z,997.74
2022-08-04T04:15:00.092Z,997.63
2022-08-04T04:20:00.081Z,997.55
2022-08-04T04:25:00.101Z,997.61
2022-08-04T04:30:00.091Z,997.71
2022-08-04T04:35:00.086Z,997.7
2022-08-04T04:40:00.100Z,997.81
2022-08-04T04:45:00.077Z,997.82
2022-08-04T04:50:00.088Z,997.81
2022-08-04T04:55:00.079Z,997.78
2022-08-04T05:00:00.104Z,997.83
2022-08-04T05:05:00.075Z,997.81
2022-08-04T05:10:00.096Z,997.75
2022-08-04T05:15:00.092Z,997.83
2022-08-04T05:20:00.096Z,997.84
2022-08-04T05:25:00.087Z,997.87
2022-08-04T05:30:00.163Z,997.78
2022-08-04T05:35:00.103Z,997.81
2022-08-04T05:40:00.089Z,997.86
2022-08-04T05:45:00.159Z,997.79
2022-08-04T05:50:01.214Z,997.81
2022-08-04T05:55:00.136Z,997.8
2022-08-04T06:00:00.167Z,997.78
2022-08-04T06:05:00.094Z,997.91
2022-08-04T06:10:00.126Z,997.9
2022-08-04T06:15:00.190Z,997.91
2022-08-04T06:20:18.779Z,997.88
2022-08-04T06:25:00.087Z,997.95
2022-08-04T06:30:00.093Z,997.91
2022-08-04T06:35:00.099Z,997.98
2022-08-04T06:40:00.107Z,997.9
2022-08-04T06:45:00.090Z,997.93
2022-08-04T06:51:23.699Z,997.98
2022-08-04T06:55:00.130Z,997.89
2022-08-04T07:00:00.095Z,997.95
2022-08-04T07:05:02.389Z,997.94
2022-08-04T07:10:00.100Z,997.9
2022-08-04T07:15:00.092Z,997.87
2022-08-04T07:20:00.075Z,997.96
2022-08-04T07:25:01.283Z,997.9
2022-08-04T07:30:00.120Z,997.88
2022-08-04T07:35:00.086Z,997.85
2022-08-04T07:40:00.191Z,997.88
2022-08-04T07:45:00.097Z,997.87
2022-08-04T07:50:00.078Z,997.79
2022-08-04T07:55:00.077Z,997.89
2022-08-04T08:00:00.195Z,997.85
2022-08-04T08:05:00.111Z,997.83
2022-08-04T08:10:00.115Z,997.74
2022-08-04T08:15:00.088Z,997.81
2022-08-04T08:20:00.123Z,997.7
2022-08-04T08:25:00.103Z,997.74
2022-08-04T08:30:00.125Z,997.69
2022-08-04T08:35:00.094Z,997.69
2022-08-04T08:40:00.127Z,997.74
2022-08-04T08:45:00.077Z,997.7
2022-08-04T08:50:03.893Z,997.68
2022-08-04T08:55:00.090Z,997.75
2022-08-04T09:00:00.107Z,997.74
2022-08-04T09:05:00.097Z,997.66
2022-08-04T09:10:00.113Z,997.7
2022-08-04T09:15:00.082Z,997.68
2022-08-04T09:20:00.141Z,997.71
2022-08-04T09:25:00.143Z,997.68
2022-08-04T09:30:00.096Z,997.68
2022-08-04T09:35:03.124Z,997.7
2022-08-04T09:40:00.131Z,997.65
2022-08-04T09:45:04.168Z,997.66
2022-08-04T09:50:00.133Z,997.54
2022-08-04T09:55:00.133Z,997.52
2022-08-04T10:00:00.114Z,997.43
2022-08-04T10:05:00.084Z,997.44
2022-08-04T10:10:00.098Z,997.51
2022-08-04T10:15:00.088Z,997.44
2022-08-04T10:20:00.101Z,997.39
2022-08-04T10:25:00.114Z,997.34
2022-08-04T10:30:00.618Z,997.4
2022-08-04T10:35:00.094Z,997.22
2022-08-04T10:40:00.232Z,997.19
2022-08-04T10:45:00.094Z,997.19
2022-08-04T10:50:00.111Z,996.5
2022-08-04T10:55:00.103Z,996.54
2022-08-04T11:00:00.319Z,996.43
2022-08-04T11:05:00.101Z,996.44
2022-08-04T11:10:00.123Z,996.46
2022-08-04T11:15:00.142Z,996.36
2022-08-04T11:20:12.568Z,996.42
2022-08-04T11:25:00.255Z,996.37
2022-08-04T11:30:00.118Z,996.38
2022-08-04T11:35:00.078Z,996.44
2022-08-04T11:40:00.138Z,996.41
2022-08-04T11:45:00.090Z,996.32
2022-08-04T11:50:00.087Z,996.39
2022-08-04T11:55:00.122Z,996.33
2022-08-04T12:00:04.089Z,996.24
2022-08-04T12:05:00.087Z,996.21
2022-08-04T12:10:00.143Z,996.2
2022-08-04T12:15:00.090Z,996.15
2022-08-04T12:20:03.633Z,996.11
2022-08-04T12:25:00.119Z,995.97
2022-08-04T12:30:54.343Z,996.06
2022-08-04T12:35:00.084Z,995.95
2022-08-04T12:40:21.474Z,995.96
2022-08-04T12:45:00.109Z,995.86
2022-08-04T12:50:01.584Z,995.92
2022-08-04T12:55:00.102Z,995.85
2022-08-04T13:00:00.132Z,995.86
2022-08-04T13:05:00.086Z,995.78
2022-08-04T13:10:00.112Z,995.69
2022-08-04T13:15:08.966Z,995.71
2022-08-04T13:20:00.111Z,995.7
2022-08-04T13:25:18.622Z,995.57
2022-08-04T13:30:24.913Z,995.55
2022-08-04T13:35:00.155Z,995.48
2022-08-04T13:40:00.138Z,995.55
2022-08-04T13:45:00.123Z,995.48
2022-08-04T13:50:09.990Z,995.31
2022-08-04T13:55:00.127Z,995.36
2022-08-04T14:00:00.226Z,995.27
2022-08-04T14:05:00.118Z,995.27
2022-08-04T14:10:03.227Z,995.24
2022-08-04T14:15:00.100Z,995.27
2022-08-04T14:20:00.135Z,995.2
2022-08-04T14:25:00.120Z,995.16
2022-08-04T14:30:00.115Z,995.18
2022-08-04T14:35:00.086Z,995.03
2022-08-04T14:40:07.740Z,995.13
2022-08-04T14:45:00.094Z,995.07
2022-08-04T14:50:00.233Z,995.05
2022-08-04T14:55:00.107Z,995.07
2022-08-04T15:00:00.933Z,994.91
2022-08-04T15:05:00.085Z,994.91
2022-08-04T15:10:00.150Z,994.76
2022-08-04T15:15:14.479Z,994.76
2022-08-04T15:20:00.118Z,994.79
2022-08-04T15:25:00.118Z,994.68
2022-08-04T15:30:01.782Z,994.61
2022-08-04T15:35:00.108Z,994.58
2022-08-04T15:40:00.140Z,994.53
2022-08-04T15:45:00.102Z,994.48
2022-08-04T15:50:00.090Z,994.53
2022-08-04T15:55:00.093Z,994.55
2022-08-04T16:00:00.177Z,994.51
2022-08-04T16:05:00.103Z,994.41
2022-08-04T16:10:00.107Z,994.45
2022-08-04T16:15:00.111Z,994.42
2022-08-04T16:20:00.119Z,994.41
2022-08-04T16:25:00.099Z,994.37
2022-08-04T16:30:00.110Z,994.3
2022-08-04T16:35:00.272Z,994.3
2022-08-04T16:40:00.106Z,994.27
2022-08-04T16:45:00.099Z,994.32
2022-08-04T16:50:00.106Z,994.25
2022-08-04T16:55:00.102Z,994.29
2022-08-04T17:00:00.123Z,994.22
2022-08-04T17:05:01.126Z,994.19
2022-08-04T17:10:00.087Z,994.29
2022-08-04T17:15:00.096Z,994.28
2022-08-04T17:20:00.123Z,994.19
2022-08-04T17:25:00.133Z,994.19
2022-08-04T17:30:00.120Z,994.21
2022-08-04T17:35:00.120Z,994.18
2022-08-04T17:40:00.099Z,994.04
2022-08-04T17:45:00.088Z,994.11
2022-08-04T17:50:00.103Z,994.08
2022-08-04T17:55:02.721Z,994.21
2022-08-04T18:00:00.345Z,994.19
2022-08-04T18:05:06.616Z,994.31
2022-08-04T18:10:03.413Z,994.21
2022-08-04T18:15:00.157Z,994.2
2022-08-04T18:20:00.089Z,994.17
2022-08-04T18:25:00.086Z,994.21
2022-08-04T18:30:15.667Z,994.18
2022-08-04T18:35:05.243Z,994.22
2022-08-04T18:40:10.274Z,994.22
2022-08-04T18:45:00.079Z,994.18
2022-08-04T18:50:32.742Z,994.3
2022-08-04T18:55:01.702Z,994.3
2022-08-04T19:00:00.526Z,994.31
2022-08-04T19:05:00.097Z,994.33
2022-08-04T19:10:00.128Z,994.33
2022-08-04T19:15:08.199Z,994.33
2022-08-04T19:20:00.100Z,994.37
2022-08-04T19:25:00.137Z,994.3
2022-08-04T19:30:00.105Z,994.33
2022-08-04T19:35:00.139Z,994.31
2022-08-04T19:40:00.190Z,994.28
2022-08-04T19:45:00.116Z,994.35
2022-08-04T19:50:03.364Z,994.36
2022-08-04T19:55:00.117Z,994.43
2022-08-04T20:00:00.123Z,994.43
2022-08-04T20:05:00.097Z,994.47
2022-08-04T20:10:00.116Z,994.48
2022-08-04T20:15:00.098Z,994.39
2022-08-04T20:20:00.159Z,994.48
2022-08-04T20:25:18.464Z,994.43
2022-08-04T20:30:00.110Z,995.11
2022-08-04T20:35:00.113Z,995.08
2022-08-04T20:40:00.725Z,995.13
2022-08-04T20:45:00.138Z,995.1
2022-08-04T20:50:00.752Z,995.13
2022-08-04T20:55:00.112Z,995.1
2022-08-04T21:00:00.599Z,995.11
2022-08-04T21:05:00.093Z,995.05
2022-08-04T21:10:00.093Z,995.11
2022-08-04T21:15:00.227Z,995.08
2022-08-04T21:20:00.135Z,995
2022-08-04T21:25:00.103Z,995.04
2022-08-04T21:30:00.177Z,995.04
2022-08-04T21:35:00.145Z,994.96
2022-08-04T21:40:14.885Z,994.94
2022-08-04T21:45:00.091Z,994.9
2022-08-04T21:50:00.128Z,994.97
2022-08-04T21:55:00.135Z,994.85
2022-08-04T22:00:00.214Z,994.99
2022-08-04T22:05:00.106Z,994.97
2022-08-04T22:10:03.200Z,994.93
2022-08-04T22:15:00.102Z,994.95
2022-08-04T22:20:01.938Z,995.03
2022-08-04T22:25:00.140Z,994.86
2022-08-04T22:30:00.148Z,994.97
2022-08-04T22:35:03.052Z,994.94
2022-08-04T22:40:00.190Z,995
2022-08-04T22:45:00.119Z,995
2022-08-04T22:50:21.975Z,995.14
2022-08-04T22:55:00.130Z,995.21
2022-08-04T23:00:00.170Z,995.27
2022-08-04T23:05:00.152Z,995.34
2022-08-04T23:10:00.169Z,995.19
2022-08-04T23:15:00.098Z,995.28
2022-08-04T23:20:00.269Z,995.26
2022-08-04T23:25:00.098Z,995.24
2022-08-04T23:30:00.160Z,995.28
2022-08-04T23:35:00.116Z,995.11
2022-08-04T23:40:04.056Z,995.17
2022-08-04T23:45:00.087Z,995.1
2022-08-04T23:50:00.085Z,995.13
2022-08-04T23:55:00.136Z,995.05
